Time;durP1;ratioP1;P1;durP2;ratioP2;P2;SDS_P1;SDS_P2;PMS_P1;PMS_P2;Temp;Humidity;BMP_temperature;BMP_pressure;BME280_temperature;BME280_humidity;BME280_pressure;Samples;Min_cycle;Max_cycle;Signal;HPM_P1;HPM_P2
2020/12/23 00:02:13;;;;;;;79.60;37.47;;;8.60;99.90;;;;;;5069686;28;20044;-47
2020/12/23 00:04:39;;;;;;;76.82;36.05;;;8.60;99.90;;;;;;5057269;28;20059;-47
2020/12/23 00:07:06;;;;;;;72.63;33.78;;;8.60;99.90;;;;;;5071046;28;20417;-47
2020/12/23 00:09:33;;;;;;;72.47;33.42;;;8.50;99.90;;;;;;5064887;28;20044;-47
2020/12/23 00:12:02;;;;;;;81.00;38.15;;;8.60;99.90;;;;;;5068688;28;20051;-48
2020/12/23 00:14:29;;;;;;;74.20;36.58;;;8.60;99.90;;;;;;5070856;28;20078;-46
2020/12/23 00:16:56;;;;;;;90.55;40.28;;;8.50;99.90;;;;;;5073331;28;20056;-47
2020/12/23 00:19:22;;;;;;;84.43;39.13;;;8.50;99.90;;;;;;5068338;28;20417;-47
2020/12/23 00:21:49;;;;;;;95.88;40.70;;;8.40;99.90;;;;;;5085855;28;20058;-47
2020/12/23 00:24:15;;;;;;;90.13;38.63;;;8.40;99.90;;;;;;5069682;28;20056;-48
2020/12/23 00:26:44;;;;;;;85.82;37.92;;;8.40;99.90;;;;;;5073885;28;20457;-47
2020/12/23 00:29:10;;;;;;;89.55;38.75;;;8.50;99.90;;;;;;5070611;28;20051;-47
2020/12/23 00:31:39;;;;;;;84.88;38.67;;;8.40;99.90;;;;;;5071592;28;20043;-47
2020/12/23 00:34:05;;;;;;;96.50;40.30;;;8.40;99.90;;;;;;5060319;28;20048;-47
2020/12/23 00:36:32;;;;;;;96.50;39.40;;;8.40;99.90;;;;;;5064036;28;20055;-47
2020/12/23 00:38:58;;;;;;;96.88;38.28;;;8.40;99.90;;;;;;5073733;28;20508;-47
2020/12/23 00:41:25;;;;;;;87.72;35.97;;;8.50;99.90;;;;;;5070052;28;20045;-47
2020/12/23 00:43:52;;;;;;;87.80;34.40;;;8.50;99.90;;;;;;5064220;28;20072;-47
2020/12/23 00:46:18;;;;;;;85.88;35.28;;;8.40;99.90;;;;;;5068185;28;20505;-47
2020/12/23 00:48:45;;;;;;;87.00;34.08;;;8.50;99.90;;;;;;5071121;28;20045;-47
2020/12/23 00:51:13;;;;;;;79.15;33.97;;;8.50;99.90;;;;;;5071722;28;20052;-47
2020/12/23 00:53:41;;;;;;;91.35;33.30;;;8.50;99.90;;;;;;5073061;28;20048;-46
2020/12/23 00:56:08;;;;;;;91.35;35.08;;;8.50;99.90;;;;;;5063731;28;20056;-47
2020/12/23 00:58:35;;;;;;;95.50;36.20;;;8.50;99.90;;;;;;5071414;28;20051;-48
2020/12/23 01:01:03;;;;;;;101.80;37.88;;;8.50;99.90;;;;;;5070860;28;20404;-47
2020/12/23 01:03:45;;;;;;;93.85;37.03;;;8.50;99.90;;;;;;5065516;28;20075;-47
2020/12/23 01:06:12;;;;;;;76.78;33.58;;;8.40;99.90;;;;;;5072434;28;20382;-47
2020/12/23 01:08:41;;;;;;;87.53;36.78;;;8.50;99.90;;;;;;5071983;28;20044;-47
2020/12/23 01:11:09;;;;;;;76.50;33.83;;;8.40;99.90;;;;;;5079505;28;20055;-47
2020/12/23 01:13:37;;;;;;;85.13;34.58;;;8.40;99.90;;;;;;5070290;28;20083;-48
2020/12/23 01:16:05;;;;;;;80.53;34.33;;;8.40;99.90;;;;;;5066501;28;20052;-47
2020/12/23 01:18:31;;;;;;;73.82;32.88;;;8.40;99.90;;;;;;5059184;28;20059;-47
2020/12/23 01:20:58;;;;;;;69.07;30.40;;;8.40;99.90;;;;;;5064252;28;20063;-47
2020/12/23 01:23:24;;;;;;;77.47;33.35;;;8.40;99.90;;;;;;5073419;28;20421;-47
2020/12/23 01:25:55;;;;;;;73.80;31.35;;;8.40;99.90;;;;;;5068489;28;20055;-47
2020/12/23 01:28:22;;;;;;;66.80;32.60;;;8.40;99.90;;;;;;5067833;28;20037;-47
2020/12/23 01:30:49;;;;;;;71.35;32.28;;;8.40;99.90;;;;;;5067455;28;20056;-47
2020/12/23 01:33:16;;;;;;;84.55;39.75;;;8.40;99.90;;;;;;5083728;28;20694;-47
2020/12/23 01:35:43;;;;;;;85.55;38.92;;;8.40;99.90;;;;;;5072953;28;20493;-47
2020/12/23 01:38:10;;;;;;;80.75;33.38;;;8.40;99.90;;;;;;5067998;28;20055;-47
2020/12/23 01:40:37;;;;;;;75.68;36.17;;;8.40;99.90;;;;;;5068699;28;20769;-47
2020/12/23 01:43:07;;;;;;;78.15;36.55;;;8.40;99.90;;;;;;5073499;28;20060;-47
2020/12/23 01:45:34;;;;;;;82.60;36.45;;;8.40;99.90;;;;;;5070838;28;20052;-47
2020/12/23 01:48:09;;;;;;;77.95;36.58;;;8.40;99.90;;;;;;5067612;28;20051;-47
2020/12/23 01:50:36;;;;;;;70.55;35.50;;;8.40;99.90;;;;;;5069325;28;20047;-47
2020/12/23 01:53:02;;;;;;;71.20;36.50;;;8.30;99.90;;;;;;5067383;28;20044;-47
2020/12/23 01:55:29;;;;;;;66.22;35.20;;;8.30;99.90;;;;;;5055013;28;20044;-47
2020/12/23 01:57:56;;;;;;;65.35;33.28;;;8.30;99.90;;;;;;5073544;28;20052;-47
2020/12/23 02:00:23;;;;;;;71.80;36.75;;;8.30;99.90;;;;;;5070282;28;20415;-47
2020/12/23 02:02:54;;;;;;;69.53;34.70;;;8.30;99.90;;;;;;5066005;28;20045;-46
2020/12/23 02:05:20;;;;;;;68.57;33.00;;;8.30;99.90;;;;;;5062037;28;20056;-47
2020/12/23 02:07:48;;;;;;;61.80;32.50;;;8.30;99.90;;;;;;5071195;28;20048;-47
2020/12/23 02:10:15;;;;;;;74.28;38.58;;;8.30;99.90;;;;;;5067739;28;20047;-47
2020/12/23 02:12:41;;;;;;;57.75;30.75;;;8.40;99.90;;;;;;5077144;28;20048;-47
2020/12/23 02:15:12;;;;;;;68.90;36.42;;;8.30;99.90;;;;;;5066419;28;20052;-47
2020/12/23 02:17:41;;;;;;;68.90;36.15;;;8.40;99.90;;;;;;5069783;28;20084;-47
2020/12/23 02:20:12;;;;;;;69.03;35.90;;;8.40;99.90;;;;;;5068587;28;20060;-47
2020/12/23 02:22:38;;;;;;;64.35;32.60;;;8.30;99.90;;;;;;5063142;28;20521;-47
2020/12/23 02:25:06;;;;;;;62.33;34.13;;;8.30;99.90;;;;;;5068483;28;20445;-46
2020/12/23 02:27:33;;;;;;;63.20;33.40;;;8.30;99.90;;;;;;5067290;28;20052;-46
2020/12/23 02:30:00;;;;;;;65.03;35.97;;;8.30;99.90;;;;;;5070911;28;21145;-48
2020/12/23 02:32:27;;;;;;;63.33;33.90;;;8.30;99.90;;;;;;5067421;28;20563;-47
2020/12/23 02:34:54;;;;;;;70.15;36.03;;;8.30;99.90;;;;;;5068575;28;20045;-47
2020/12/23 02:37:21;;;;;;;60.83;32.38;;;8.30;99.90;;;;;;5067810;28;20052;-47
2020/12/23 02:39:53;;;;;;;61.55;33.40;;;8.30;99.90;;;;;;5056304;28;20378;-47
2020/12/23 02:42:22;;;;;;;73.93;33.08;;;8.30;99.90;;;;;;5063377;28;20045;-47
2020/12/23 02:44:49;;;;;;;69.13;32.28;;;8.30;99.90;;;;;;5060173;28;20044;-47
2020/12/23 02:47:17;;;;;;;67.32;33.30;;;8.30;99.90;;;;;;5059543;28;20044;-49
2020/12/23 02:49:45;;;;;;;67.97;32.35;;;8.30;99.90;;;;;;5069555;28;20413;-47
2020/12/23 02:52:12;;;;;;;67.38;32.42;;;8.40;99.90;;;;;;5061444;28;20044;-47
2020/12/23 02:54:39;;;;;;;67.70;33.85;;;8.30;99.90;;;;;;5066033;28;20040;-47
2020/12/23 02:57:07;;;;;;;76.20;33.83;;;8.30;99.90;;;;;;5077100;28;20037;-47
2020/12/23 02:59:33;;;;;;;66.53;30.10;;;8.30;99.90;;;;;;5067757;28;20055;-47
2020/12/23 03:02:00;;;;;;;72.25;32.38;;;8.30;99.90;;;;;;5068489;28;20394;-47
2020/12/23 03:04:27;;;;;;;77.53;33.08;;;8.30;99.90;;;;;;5070065;28;20048;-47
2020/12/23 03:06:54;;;;;;;73.80;33.78;;;8.30;99.90;;;;;;5069600;28;20060;-47
2020/12/23 03:09:21;;;;;;;70.63;30.30;;;8.30;99.90;;;;;;5056142;28;20052;-47
2020/12/23 03:11:47;;;;;;;65.55;30.02;;;8.30;99.90;;;;;;5071096;28;20421;-47
2020/12/23 03:14:15;;;;;;;65.07;31.98;;;8.30;99.90;;;;;;5055353;28;20051;-47
2020/12/23 03:16:42;;;;;;;58.22;30.00;;;8.30;99.90;;;;;;5063250;28;21482;-47
2020/12/23 03:19:09;;;;;;;68.57;33.22;;;8.30;99.90;;;;;;5052941;28;20482;-47
2020/12/23 03:21:36;;;;;;;61.92;31.63;;;8.30;99.90;;;;;;5068530;28;20044;-47
2020/12/23 03:24:03;;;;;;;64.03;32.45;;;8.30;99.90;;;;;;5059126;28;20141;-47
2020/12/23 03:26:29;;;;;;;67.00;32.28;;;8.30;99.90;;;;;;5075763;28;20055;-47
2020/12/23 03:28:55;;;;;;;53.03;30.30;;;8.30;99.90;;;;;;5079244;28;20041;-47
2020/12/23 03:31:22;;;;;;;51.38;27.92;;;8.30;99.90;;;;;;5071921;28;20104;-46
2020/12/23 03:33:49;;;;;;;52.58;31.38;;;8.30;99.90;;;;;;5068754;28;20053;-47
2020/12/23 03:36:16;;;;;;;55.22;28.23;;;8.30;99.90;;;;;;5063908;28;20493;-47
2020/12/23 03:38:42;;;;;;;53.95;27.88;;;8.30;99.90;;;;;;5065767;28;20056;-46
2020/12/23 03:41:09;;;;;;;62.65;31.33;;;8.30;99.90;;;;;;5071708;28;20052;-47
2020/12/23 03:43:36;;;;;;;64.93;30.35;;;8.30;99.90;;;;;;5066234;28;20503;-47
2020/12/23 03:46:03;;;;;;;56.58;29.13;;;8.40;99.90;;;;;;5064463;28;20048;-47
2020/12/23 03:48:30;;;;;;;65.63;30.00;;;8.40;99.90;;;;;;5072004;28;20051;-47
2020/12/23 03:50:56;;;;;;;65.20;31.90;;;8.40;99.90;;;;;;5079670;28;20055;-47
2020/12/23 03:53:23;;;;;;;62.13;32.78;;;8.30;99.90;;;;;;5068951;28;20044;-47
2020/12/23 03:55:49;;;;;;;46.40;29.33;;;8.30;99.90;;;;;;5069072;28;20041;-47
2020/12/23 03:58:16;;;;;;;50.75;28.67;;;8.20;99.90;;;;;;5060632;28;20474;-47
2020/12/23 04:00:43;;;;;;;48.63;29.40;;;8.20;99.90;;;;;;5062449;28;20052;-47
2020/12/23 04:03:10;;;;;;;46.65;27.38;;;8.20;99.90;;;;;;5070001;28;20052;-47
2020/12/23 04:05:38;;;;;;;52.15;31.15;;;8.20;99.90;;;;;;5069745;28;20052;-47
2020/12/23 04:08:05;;;;;;;43.35;26.33;;;8.20;99.90;;;;;;5065360;28;20060;-47
2020/12/23 04:10:32;;;;;;;57.20;30.50;;;8.10;99.90;;;;;;5069408;28;20041;-46
2020/12/23 04:13:00;;;;;;;51.50;30.98;;;8.20;99.90;;;;;;5072077;28;20049;-49
2020/12/23 04:15:26;;;;;;;42.40;26.65;;;8.10;99.90;;;;;;5073542;28;20060;-47
2020/12/23 04:17:54;;;;;;;50.70;28.42;;;8.10;99.90;;;;;;5071368;28;20067;-47
2020/12/23 04:20:21;;;;;;;52.28;32.50;;;8.20;99.90;;;;;;5074244;28;20040;-47
2020/12/23 04:22:48;;;;;;;55.42;31.38;;;8.20;99.90;;;;;;5073952;28;20060;-47
2020/12/23 04:25:15;;;;;;;53.47;31.40;;;8.10;99.90;;;;;;5074749;28;20052;-47
2020/12/23 04:27:41;;;;;;;50.60;29.98;;;8.20;99.90;;;;;;5068292;28;20059;-47
2020/12/23 04:30:08;;;;;;;38.03;24.77;;;8.10;99.90;;;;;;5058343;28;20055;-47
2020/12/23 04:32:36;;;;;;;55.50;30.00;;;8.10;99.90;;;;;;5066921;28;20677;-47
2020/12/23 04:35:05;;;;;;;45.63;25.75;;;8.10;99.90;;;;;;5069021;28;20045;-47
2020/12/23 04:37:33;;;;;;;48.63;28.55;;;8.20;99.90;;;;;;5071286;28;20041;-47
2020/12/23 04:40:04;;;;;;;46.10;28.02;;;8.20;99.90;;;;;;5074420;28;20643;-47
2020/12/23 04:42:32;;;;;;;38.97;21.88;;;8.20;99.90;;;;;;5064972;28;20045;-47
2020/12/23 04:45:00;;;;;;;43.42;24.83;;;8.20;99.90;;;;;;5067396;28;20048;-47
2020/12/23 04:47:30;;;;;;;38.38;25.08;;;8.20;99.90;;;;;;5072735;28;20040;-48
2020/12/23 04:49:58;;;;;;;48.47;27.00;;;8.20;99.90;;;;;;5067186;28;20044;-47
2020/12/23 04:52:35;;;;;;;53.35;27.45;;;8.30;99.90;;;;;;5059535;28;20123;-47
2020/12/23 04:55:04;;;;;;;40.55;24.67;;;8.30;99.90;;;;;;5070046;28;20048;-47
2020/12/23 04:57:31;;;;;;;45.08;25.67;;;8.30;99.90;;;;;;5080397;28;20103;-47
2020/12/23 04:59:58;;;;;;;44.78;25.85;;;8.30;99.90;;;;;;5071860;28;20072;-47
2020/12/23 05:02:26;;;;;;;58.08;29.77;;;8.40;99.90;;;;;;5070659;28;20105;-47
2020/12/23 05:04:53;;;;;;;49.72;27.08;;;8.40;99.90;;;;;;5067877;28;20041;-47
2020/12/23 05:07:21;;;;;;;54.67;28.90;;;8.40;99.90;;;;;;5070433;28;20048;-47
2020/12/23 05:09:50;;;;;;;49.90;27.35;;;8.30;99.90;;;;;;5071511;28;20067;-47
2020/12/23 05:12:22;;;;;;;47.90;24.85;;;8.30;99.90;;;;;;5068899;28;20041;-47
2020/12/23 05:14:50;;;;;;;;;;;8.30;99.90;;;;;;5067520;28;20462;-48
2020/12/23 05:17:17;;;;;;;48.83;25.17;;;8.30;99.90;;;;;;5071158;28;19927;-47
2020/12/23 05:19:46;;;;;;;42.80;23.95;;;8.30;99.90;;;;;;5060156;28;20045;-47
2020/12/23 05:22:15;;;;;;;47.40;23.73;;;8.30;99.90;;;;;;5070019;28;20402;-47
2020/12/23 05:24:42;;;;;;;48.67;26.40;;;8.30;99.90;;;;;;5071186;28;20049;-47
2020/12/23 05:27:09;;;;;;;47.15;25.23;;;8.30;99.90;;;;;;5068822;28;20047;-47
2020/12/23 05:29:36;;;;;;;41.88;23.77;;;8.30;99.90;;;;;;5068277;28;20057;-47
2020/12/23 05:32:03;;;;;;;45.67;25.85;;;8.30;99.90;;;;;;5086247;28;20048;-47
2020/12/23 05:34:35;;;;;;;48.15;25.63;;;8.30;99.90;;;;;;5065640;28;20044;-47
2020/12/23 05:37:03;;;;;;;53.20;29.88;;;8.30;99.90;;;;;;5072331;28;20043;-47
2020/12/23 05:39:31;;;;;;;53.47;27.58;;;8.30;99.90;;;;;;5067325;28;20055;-47
2020/12/23 05:41:59;;;;;;;52.00;28.20;;;8.40;99.90;;;;;;5057367;28;20052;-46
2020/12/23 05:44:27;;;;;;;48.53;27.65;;;8.30;99.90;;;;;;5072348;28;20142;-47
2020/12/23 05:46:55;;;;;;;52.78;28.30;;;8.30;99.90;;;;;;5070467;28;20047;-47
2020/12/23 05:49:23;;;;;;;52.42;27.95;;;8.30;99.90;;;;;;5068700;28;20052;-47
2020/12/23 05:51:52;;;;;;;56.20;27.90;;;8.30;99.90;;;;;;5064158;28;20059;-47
2020/12/23 05:54:19;;;;;;;51.83;28.15;;;8.30;99.90;;;;;;5055625;28;20505;-46
2020/12/23 05:56:51;;;;;;;54.92;29.08;;;8.40;99.90;;;;;;5068854;28;20041;-48
2020/12/23 05:59:18;;;;;;;44.85;26.17;;;8.30;99.90;;;;;;5070751;28;20071;-47
2020/12/23 06:01:45;;;;;;;51.15;26.70;;;8.30;99.90;;;;;;5053987;28;20048;-47
2020/12/23 06:04:16;;;;;;;52.15;28.60;;;8.30;99.90;;;;;;5060261;28;20044;-47
2020/12/23 06:07:06;;;;;;;52.58;28.10;;;8.40;99.90;;;;;;5061387;28;20056;-48
2020/12/23 06:09:49;;;;;;;49.80;27.52;;;8.40;99.90;;;;;;5067617;28;20114;-48
2020/12/23 06:12:18;;;;;;;45.00;26.38;;;8.40;99.90;;;;;;5059427;28;20079;-47
2020/12/23 06:14:52;;;;;;;40.78;21.73;;;8.40;99.90;;;;;;5068303;28;20059;-47
2020/12/23 06:17:20;;;;;;;43.33;24.85;;;8.40;99.90;;;;;;5057253;28;20049;-48
2020/12/23 06:19:57;;;;;;;37.92;23.55;;;8.40;99.90;;;;;;5071191;28;20052;-47
2020/12/23 06:22:27;;;;;;;39.13;24.15;;;8.40;99.90;;;;;;5067472;28;20058;-48
2020/12/23 06:24:54;;;;;;;43.90;26.45;;;8.30;99.90;;;;;;5070102;28;20083;-48
2020/12/23 06:27:20;;;;;;;36.50;22.92;;;8.40;99.90;;;;;;5065271;28;21752;-48
2020/12/23 06:29:48;;;;;;;40.83;25.45;;;8.40;99.90;;;;;;5070552;28;20053;-49
2020/12/23 06:32:23;;;;;;;46.63;26.05;;;8.50;99.90;;;;;;5064172;28;20124;-49
2020/12/23 06:35:00;;;;;;;39.83;26.55;;;8.50;99.90;;;;;;5064124;28;20044;-48
2020/12/23 06:37:32;;;;;;;44.95;25.33;;;8.50;99.90;;;;;;5065560;28;20048;-49
2020/12/23 06:40:06;;;;;;;39.80;24.92;;;8.50;99.90;;;;;;5066724;28;20056;-48
2020/12/23 06:42:32;;;;;;;41.83;26.70;;;8.50;99.90;;;;;;5070599;28;20048;-49
2020/12/23 06:45:06;;;;;;;42.60;27.02;;;8.50;99.90;;;;;;5066427;28;20513;-49
2020/12/23 06:47:35;;;;;;;42.05;25.20;;;8.50;99.90;;;;;;5065230;28;20048;-48
2020/12/23 06:50:04;;;;;;;39.13;25.38;;;8.50;99.90;;;;;;5067759;28;20409;-48
2020/12/23 06:52:32;;;;;;;39.38;25.90;;;8.50;99.90;;;;;;5068871;28;20053;-48
2020/12/23 06:55:03;;;;;;;38.28;25.98;;;8.50;99.90;;;;;;5066249;28;20401;-48
2020/12/23 06:57:36;;;;;;;41.28;28.27;;;8.60;99.90;;;;;;5067132;28;20064;-48
2020/12/23 07:00:08;;;;;;;60.50;31.10;;;8.60;99.90;;;;;;5067934;28;20060;-48
2020/12/23 07:02:45;;;;;;;53.00;30.85;;;8.70;99.90;;;;;;5067422;28;20045;-48
2020/12/23 07:05:13;;;;;;;49.95;30.00;;;8.70;99.90;;;;;;5069615;28;20063;-49
2020/12/23 07:07:42;;;;;;;49.67;27.83;;;8.60;99.90;;;;;;5065664;28;20132;-48
2020/12/23 07:10:12;;;;;;;49.58;27.80;;;8.60;99.90;;;;;;5055260;28;20036;-48
2020/12/23 07:12:42;;;;;;;50.13;30.63;;;8.50;99.90;;;;;;5047842;28;20045;-48
2020/12/23 07:15:12;;;;;;;52.90;31.73;;;8.50;99.90;;;;;;5057373;28;20454;-48
2020/12/23 07:17:40;;;;;;;46.58;26.67;;;8.50;99.90;;;;;;5070239;28;20052;-49
2020/12/23 07:20:08;;;;;;;47.85;30.42;;;8.60;99.90;;;;;;5065216;28;20041;-48
2020/12/23 07:22:35;;;;;;;58.80;36.70;;;8.60;99.90;;;;;;5055017;28;20056;-49
2020/12/23 07:25:03;;;;;;;47.88;29.85;;;8.60;99.90;;;;;;5064930;28;20044;-48
2020/12/23 07:27:31;;;;;;;58.05;34.83;;;8.50;99.90;;;;;;5051989;28;20477;-48
2020/12/23 07:30:07;;;;;;;52.75;31.15;;;8.40;99.90;;;;;;5063243;28;20056;-49
2020/12/23 07:32:35;;;;;;;45.83;29.70;;;8.50;99.90;;;;;;5060171;28;20068;-49
2020/12/23 07:35:04;;;;;;;42.75;26.92;;;8.50;99.90;;;;;;5069288;28;20126;-48
2020/12/23 07:37:41;;;;;;;47.63;26.38;;;8.50;99.90;;;;;;5069282;28;20048;-47
2020/12/23 07:40:15;;;;;;;43.85;29.05;;;8.60;99.90;;;;;;5070978;28;20056;-48
2020/12/23 07:42:48;;;;;;;43.90;26.55;;;8.60;99.90;;;;;;5070995;28;20055;-48
2020/12/23 07:45:16;;;;;;;39.97;26.17;;;8.60;99.90;;;;;;5062368;28;20048;-48
2020/12/23 07:47:56;;;;;;;38.45;26.02;;;8.60;99.90;;;;;;5070528;28;20056;-48
2020/12/23 07:50:24;;;;;;;52.65;32.90;;;8.70;99.90;;;;;;5073370;28;20052;-49
2020/12/23 07:52:51;;;;;;;59.05;35.67;;;8.60;99.90;;;;;;5071944;28;20052;-47
2020/12/23 07:55:19;;;;;;;56.28;34.85;;;8.60;99.90;;;;;;5067689;28;20045;-50
2020/12/23 07:57:51;;;;;;;52.28;32.20;;;8.60;99.90;;;;;;5069599;28;20481;-49
2020/12/23 08:00:19;;;;;;;52.50;28.10;;;8.60;99.90;;;;;;5068191;28;20060;-48
2020/12/23 08:02:46;;;;;;;55.90;31.88;;;8.60;99.90;;;;;;5073948;28;20052;-49
2020/12/23 08:05:14;;;;;;;73.60;35.42;;;8.70;99.90;;;;;;5067006;28;20056;-48
2020/12/23 08:07:43;;;;;;;59.25;34.63;;;8.60;99.90;;;;;;5061311;28;20049;-50
2020/12/23 08:10:15;;;;;;;59.65;32.65;;;8.60;99.90;;;;;;5073598;28;20397;-48
2020/12/23 08:12:55;;;;;;;58.60;32.58;;;8.50;99.90;;;;;;5071730;28;20090;-48
2020/12/23 08:15:22;;;;;;;56.72;32.03;;;8.50;99.90;;;;;;5057785;28;20053;-48
2020/12/23 08:18:11;;;;;;;57.47;33.38;;;8.50;99.90;;;;;;5066620;28;20048;-48
2020/12/23 08:20:38;;;;;;;52.13;29.08;;;8.50;99.90;;;;;;5061196;28;20064;-48
2020/12/23 08:23:04;;;;;;;59.92;31.45;;;8.50;99.90;;;;;;5065611;28;20051;-48
2020/12/23 08:25:32;;;;;;;51.85;27.38;;;8.50;99.90;;;;;;5071479;28;20052;-49
2020/12/23 08:28:00;;;;;;;47.22;29.33;;;8.60;99.90;;;;;;5071626;28;20055;-48
2020/12/23 08:30:29;;;;;;;54.22;31.60;;;8.60;99.90;;;;;;5070506;28;20493;-48
2020/12/23 08:33:15;;;;;;;187.88;45.85;;;8.60;99.90;;;;;;5063031;28;20044;-48
2020/12/23 08:35:44;;;;;;;65.95;38.75;;;8.70;99.90;;;;;;5064488;28;20048;-49
2020/12/23 08:38:19;;;;;;;65.95;37.67;;;8.70;99.90;;;;;;5072039;28;20060;-48
2020/12/23 08:40:49;;;;;;;61.40;33.13;;;8.60;99.90;;;;;;5069421;28;20048;-48
2020/12/23 08:43:23;;;;;;;65.93;36.58;;;8.60;99.90;;;;;;5064914;28;20056;-48
2020/12/23 08:45:50;;;;;;;;;;;8.70;99.90;;;;;;5069895;28;20803;-48
2020/12/23 08:48:24;;;;;;;66.60;35.17;;;8.60;99.90;;;;;;5072214;28;19920;-48
2020/12/23 08:50:58;;;;;;;46.08;24.90;;;8.60;99.90;;;;;;5057084;28;20045;-48
2020/12/23 08:53:36;;;;;;;53.60;26.63;;;8.80;99.90;;;;;;5065072;28;20059;-48
2020/12/23 08:56:22;;;;;;;38.67;22.73;;;8.80;99.90;;;;;;5054583;28;20045;-48
2020/12/23 08:58:50;;;;;;;52.33;25.13;;;8.90;99.90;;;;;;5064560;28;20056;-48
2020/12/23 09:01:24;;;;;;;47.60;25.98;;;8.90;99.90;;;;;;5056587;28;20041;-48
2020/12/23 09:04:07;;;;;;;53.45;27.10;;;9.00;99.90;;;;;;5061476;28;20049;-48
2020/12/23 09:06:43;;;;;;;52.20;29.00;;;9.00;99.90;;;;;;5063625;28;20486;-48
2020/12/23 09:09:17;;;;;;;42.67;23.77;;;9.10;99.90;;;;;;5072084;28;20071;-48
2020/12/23 09:11:46;;;;;;;36.92;21.85;;;9.10;99.90;;;;;;5053045;28;20040;-49
2020/12/23 09:14:39;;;;;;;40.22;22.40;;;9.20;99.90;;;;;;5056143;28;20045;-48
2020/12/23 09:17:08;;;;;;;35.75;22.17;;;9.20;99.90;;;;;;5066977;28;20049;-48
2020/12/23 09:19:48;;;;;;;28.17;18.17;;;9.20;99.90;;;;;;5062634;28;20053;-48
2020/12/23 09:22:35;;;;;;;26.25;17.20;;;9.30;99.90;;;;;;5055308;28;20055;-48
2020/12/23 09:25:14;;;;;;;26.48;16.48;;;9.30;99.90;;;;;;5065100;28;20083;-48
2020/12/23 09:27:41;;;;;;;28.95;18.67;;;9.30;99.90;;;;;;5068264;28;20047;-48
2020/12/23 09:30:09;;;;;;;22.20;15.75;;;9.30;99.90;;;;;;5061359;28;20154;-48
2020/12/23 09:32:49;;;;;;;27.13;18.27;;;9.30;99.90;;;;;;5061099;28;20062;-48
2020/12/23 09:35:16;;;;;;;28.23;18.52;;;9.30;99.90;;;;;;5070974;28;20056;-48
2020/12/23 09:37:43;;;;;;;33.88;20.02;;;9.40;99.90;;;;;;5068537;28;20048;-49
2020/12/23 09:40:12;;;;;;;23.92;17.60;;;9.40;99.90;;;;;;5070598;28;20049;-48
2020/12/23 09:42:39;;;;;;;19.58;14.38;;;9.40;99.90;;;;;;5065030;28;20501;-48
2020/12/23 09:45:09;;;;;;;18.95;13.95;;;9.40;99.90;;;;;;5070394;28;20040;-48
2020/12/23 09:47:42;;;;;;;21.80;17.08;;;9.50;99.90;;;;;;5063040;28;20045;-48
2020/12/23 09:50:10;;;;;;;24.48;17.80;;;9.50;99.90;;;;;;5065702;28;20051;-49
2020/12/23 09:52:37;;;;;;;16.60;13.65;;;9.50;99.90;;;;;;5068066;28;20043;-48
2020/12/23 09:55:07;;;;;;;21.73;15.25;;;9.50;99.90;;;;;;5070129;28;20409;-48
2020/12/23 09:57:37;;;;;;;16.15;13.63;;;9.50;99.90;;;;;;5067963;28;20485;-48
2020/12/23 10:00:07;;;;;;;23.80;15.57;;;9.50;99.90;;;;;;5069770;28;20048;-49
2020/12/23 10:02:34;;;;;;;18.35;12.95;;;9.50;99.90;;;;;;5063444;28;20059;-48
2020/12/23 10:05:01;;;;;;;21.42;13.85;;;9.50;99.90;;;;;;5067755;28;20048;-48
2020/12/23 10:07:28;;;;;;;19.13;15.27;;;9.60;99.90;;;;;;5070231;28;20409;-48
2020/12/23 10:09:54;;;;;;;18.23;13.00;;;9.60;99.90;;;;;;5066790;28;20044;-48
2020/12/23 10:12:22;;;;;;;19.92;14.45;;;9.60;99.90;;;;;;5063912;28;20131;-48
2020/12/23 10:14:50;;;;;;;17.10;13.80;;;9.60;99.90;;;;;;5067568;28;20109;-48
2020/12/23 10:17:17;;;;;;;16.00;13.02;;;9.60;99.90;;;;;;5066498;28;20055;-50
2020/12/23 10:19:44;;;;;;;14.15;11.80;;;9.60;99.90;;;;;;5056860;28;20053;-48
2020/12/23 10:22:11;;;;;;;15.63;11.57;;;9.60;99.90;;;;;;5064759;28;20067;-48
2020/12/23 10:24:38;;;;;;;14.60;13.02;;;9.70;99.90;;;;;;5053448;28;20061;-48
2020/12/23 10:27:05;;;;;;;12.85;10.75;;;9.70;99.90;;;;;;5062537;28;20482;-48
2020/12/23 10:29:31;;;;;;;14.18;12.13;;;9.70;99.90;;;;;;5053776;28;20466;-49
2020/12/23 10:31:59;;;;;;;12.38;10.27;;;9.60;99.90;;;;;;5063061;28;20049;-48
2020/12/23 10:34:25;;;;;;;12.73;11.15;;;9.70;99.90;;;;;;5060302;28;20063;-48
2020/12/23 10:36:52;;;;;;;13.88;10.63;;;9.70;99.90;;;;;;5067216;28;20063;-48
2020/12/23 10:39:19;;;;;;;13.18;11.00;;;9.60;99.90;;;;;;5067858;28;20048;-48
2020/12/23 10:41:46;;;;;;;14.93;9.40;;;9.70;99.90;;;;;;5055597;28;20052;-49
2020/12/23 10:44:13;;;;;;;12.30;10.45;;;9.70;99.90;;;;;;5064802;28;20041;-48
2020/12/23 10:46:39;;;;;;;13.43;10.20;;;9.80;99.90;;;;;;5058412;28;20060;-49
2020/12/23 10:49:06;;;;;;;13.98;9.52;;;9.80;99.90;;;;;;5064287;28;20485;-48
2020/12/23 10:51:32;;;;;;;17.27;11.80;;;9.80;99.90;;;;;;5070367;28;20045;-48
2020/12/23 10:53:59;;;;;;;13.18;11.25;;;9.90;99.90;;;;;;5065314;28;20041;-49
2020/12/23 10:56:25;;;;;;;16.65;13.05;;;9.90;99.90;;;;;;5065012;28;20444;-48
2020/12/23 10:58:52;;;;;;;12.50;10.70;;;9.90;99.90;;;;;;5068250;28;20056;-48
2020/12/23 11:01:20;;;;;;;31.17;12.55;;;9.90;99.90;;;;;;5066883;28;20094;-48
2020/12/23 11:03:47;;;;;;;13.65;10.55;;;9.90;99.90;;;;;;5065855;28;20051;-48
2020/12/23 11:06:14;;;;;;;9.10;8.20;;;9.90;99.90;;;;;;5068765;28;20048;-48
2020/12/23 11:08:42;;;;;;;13.65;9.02;;;9.80;99.90;;;;;;5065393;28;20052;-48
2020/12/23 11:11:13;;;;;;;10.88;9.48;;;9.90;99.90;;;;;;5063068;28;20049;-48
2020/12/23 11:13:41;;;;;;;11.73;9.98;;;9.80;99.90;;;;;;5067651;28;20370;-48
2020/12/23 11:16:18;;;;;;;11.15;9.48;;;9.80;99.90;;;;;;5066717;28;20059;-48
2020/12/23 11:18:46;;;;;;;11.13;8.65;;;9.80;99.90;;;;;;5063826;28;20453;-48
2020/12/23 11:21:14;;;;;;;17.85;10.55;;;9.90;99.90;;;;;;5066136;28;20052;-48
2020/12/23 11:23:43;;;;;;;17.08;9.90;;;9.90;99.90;;;;;;5067966;28;20048;-48
2020/12/23 11:26:18;;;;;;;13.50;10.18;;;9.80;99.90;;;;;;5061892;28;20056;-48
2020/12/23 11:28:53;;;;;;;8.93;6.50;;;9.80;99.90;;;;;;5062460;28;20478;-49
2020/12/23 11:31:20;;;;;;;7.38;6.68;;;9.80;99.90;;;;;;5069295;28;20051;-48
2020/12/23 11:33:47;;;;;;;17.08;7.43;;;9.90;99.90;;;;;;5066179;28;20486;-48
2020/12/23 11:36:14;;;;;;;9.35;6.07;;;9.90;99.90;;;;;;5063082;28;20037;-48
2020/12/23 11:38:41;;;;;;;7.15;5.60;;;9.90;99.90;;;;;;5064519;28;20405;-49
2020/12/23 11:41:08;;;;;;;8.60;6.00;;;9.90;99.90;;;;;;5068419;28;20053;-48
2020/12/23 11:43:35;;;;;;;7.10;6.22;;;9.90;99.90;;;;;;5068229;28;20469;-48
2020/12/23 11:46:05;;;;;;;8.32;7.30;;;9.90;99.90;;;;;;5068188;28;20048;-48
2020/12/23 11:48:32;;;;;;;8.48;5.25;;;9.90;99.90;;;;;;5067958;28;20052;-48
2020/12/23 11:50:59;;;;;;;6.75;5.85;;;9.80;99.90;;;;;;5065950;28;20063;-48
2020/12/23 11:53:25;;;;;;;11.15;7.32;;;9.80;99.90;;;;;;5068609;28;20045;-48
2020/12/23 11:55:52;;;;;;;12.68;7.32;;;9.80;99.90;;;;;;5066972;28;20402;-48
2020/12/23 11:58:19;;;;;;;7.95;6.90;;;9.80;99.90;;;;;;5068649;28;20052;-48
2020/12/23 12:00:45;;;;;;;7.38;6.68;;;9.80;99.90;;;;;;5065012;28;20049;-48
2020/12/23 12:03:14;;;;;;;6.65;6.05;;;9.90;99.90;;;;;;5065585;28;20131;-48
2020/12/23 12:05:40;;;;;;;8.60;5.43;;;9.80;99.90;;;;;;5063609;28;20045;-49
2020/12/23 12:08:08;;;;;;;7.95;6.00;;;9.90;99.90;;;;;;5052557;28;20044;-49
2020/12/23 12:10:52;;;;;;;5.68;4.55;;;9.90;99.90;;;;;;5068746;28;20064;-48
2020/12/23 12:13:19;;;;;;;5.30;4.68;;;10.00;99.90;;;;;;5065844;28;20420;-48
2020/12/23 12:15:45;;;;;;;7.32;5.25;;;10.00;99.90;;;;;;5065916;28;20378;-48
2020/12/23 12:18:11;;;;;;;6.25;5.43;;;10.00;99.90;;;;;;5063171;28;20056;-48
2020/12/23 12:20:38;;;;;;;6.88;5.03;;;10.00;99.90;;;;;;5056544;28;20056;-48
2020/12/23 12:23:04;;;;;;;9.20;6.00;;;10.00;99.90;;;;;;5067352;28;20846;-48
2020/12/23 12:25:34;;;;;;;11.20;7.80;;;10.00;99.90;;;;;;5060140;28;20080;-49
2020/12/23 12:28:03;;;;;;;7.15;5.38;;;10.00;99.90;;;;;;5074429;28;20485;-48
2020/12/23 12:30:31;;;;;;;5.40;4.97;;;10.10;99.90;;;;;;5079621;28;20045;-48
2020/12/23 12:32:57;;;;;;;5.00;4.68;;;10.10;99.90;;;;;;5064291;28;20261;-48
2020/12/23 12:35:25;;;;;;;5.32;3.53;;;10.00;99.90;;;;;;5068853;28;20056;-48
2020/12/23 12:37:51;;;;;;;3.10;2.75;;;10.10;99.90;;;;;;5070221;28;20040;-49
2020/12/23 12:40:17;;;;;;;4.13;3.72;;;10.00;99.90;;;;;;5065745;28;20048;-48
2020/12/23 12:42:44;;;;;;;5.78;2.97;;;10.10;99.90;;;;;;5057185;28;20049;-48
2020/12/23 12:45:10;;;;;;;5.85;3.75;;;10.10;99.90;;;;;;5066376;28;20049;-48
2020/12/23 12:47:37;;;;;;;2.53;2.08;;;10.10;99.90;;;;;;5066641;28;20060;-48